createdAt,value
2023-07-04T00:01:02.700Z,95056.69
2023-07-04T00:03:29.198Z,95059.22
2023-07-04T00:05:55.669Z,95053.69
2023-07-04T00:08:22.131Z,95051.91
2023-07-04T00:10:48.553Z,95049.81
2023-07-04T00:13:15.047Z,95044.13
2023-07-04T00:15:41.551Z,95049.81
2023-07-04T00:18:07.998Z,95044.75
2023-07-04T00:20:34.440Z,95052.81
2023-07-04T00:23:00.951Z,95051.16
2023-07-04T00:25:27.422Z,95050.00
2023-07-04T00:27:53.859Z,95054.31
2023-07-04T00:30:20.280Z,95054.63
2023-07-04T00:32:46.697Z,95056.41
2023-07-04T00:35:13.170Z,95054.91
2023-07-04T00:37:39.601Z,95053.09
2023-07-04T00:40:06.043Z,95047.72
2023-07-04T00:42:32.488Z,95049.19
2023-07-04T00:44:58.905Z,95056.06
2023-07-04T00:47:25.413Z,95053.41
2023-07-04T00:49:51.870Z,95052.22
2023-07-04T00:52:18.301Z,95057.31
2023-07-04T00:54:44.742Z,95053.09
2023-07-04T00:57:11.167Z,95048.94
2023-07-04T00:59:37.641Z,95046.38
2023-07-04T01:02:04.194Z,95043.84
2023-07-04T01:04:30.660Z,95049.38
2023-07-04T01:06:57.093Z,95056.13
2023-07-04T01:09:23.540Z,95043.56
2023-07-04T01:11:49.998Z,95042.06
2023-07-04T01:14:16.439Z,95054.03
2023-07-04T01:16:42.898Z,95051.34
2023-07-04T01:19:09.376Z,95041.16
2023-07-04T01:21:35.780Z,95046.50
2023-07-04T01:24:02.220Z,95050.22
2023-07-04T01:26:28.621Z,95054.88
2023-07-04T01:28:55.134Z,95048.31
2023-07-04T01:31:21.606Z,95045.59
2023-07-04T01:33:48.052Z,95038.28
2023-07-04T01:36:14.579Z,95043.25
2023-07-04T01:38:40.986Z,95053.44
2023-07-04T01:41:07.530Z,95051.19
2023-07-04T01:43:33.949Z,95045.81
2023-07-04T01:46:00.483Z,95043.41
2023-07-04T01:48:26.968Z,95039.38
2023-07-04T01:50:53.677Z,95039.09
2023-07-04T01:53:20.377Z,95037.72
2023-07-04T01:55:46.809Z,95039.38
2023-07-04T01:58:13.262Z,95033.41
2023-07-04T02:00:39.712Z,95038.19
2023-07-04T02:03:06.257Z,95035.78
2023-07-04T02:05:32.799Z,95043.25
2023-07-04T02:07:59.221Z,95039.97
2023-07-04T02:10:25.630Z,95033.81
2023-07-04T02:12:52.110Z,95036.38
2023-07-04T02:15:18.589Z,95029.06
2023-07-04T02:17:45.158Z,95036.81
2023-07-04T02:20:11.622Z,95033.84
2023-07-04T02:22:38.050Z,95034.31
2023-07-04T02:25:04.611Z,95033.09
2023-07-04T02:27:31.015Z,95037.25
2023-07-04T02:29:57.453Z,95028.31
2023-07-04T02:32:23.916Z,95026.66
2023-07-04T02:34:50.375Z,95023.81
2023-07-04T02:37:16.794Z,95020.84
2023-07-04T02:39:43.228Z,95030.66
2023-07-04T02:42:09.669Z,95029.59
2023-07-04T02:44:36.096Z,95035.69
2023-07-04T02:47:02.571Z,95032.25
2023-07-04T02:49:28.993Z,95031.06
2023-07-04T02:51:55.441Z,95034.34
2023-07-04T02:54:21.871Z,95031.69
2023-07-04T02:56:48.376Z,95032.75
2023-07-04T02:59:14.854Z,95026.34
2023-07-04T03:01:41.330Z,95033.09
2023-07-04T03:04:07.869Z,95034.56
2023-07-04T03:06:34.529Z,95034.88
2023-07-04T03:09:00.971Z,95035.34
2023-07-04T03:11:27.384Z,95031.31
2023-07-04T03:13:53.901Z,95036.53
2023-07-04T03:16:20.358Z,95030.09
2023-07-04T03:18:46.800Z,95027.69
2023-07-04T03:21:13.239Z,95032.75
2023-07-04T03:23:39.655Z,95023.47
2023-07-04T03:26:06.092Z,95028.13
2023-07-04T03:28:32.489Z,95029.78
2023-07-04T03:30:58.963Z,95030.97
2023-07-04T03:33:25.371Z,95033.22
2023-07-04T03:35:58.635Z,95030.97
2023-07-04T03:38:26.322Z,95020.63
2023-07-04T03:40:53.076Z,95020.94
2023-07-04T03:43:19.790Z,95019.31
2023-07-04T03:45:46.207Z,95024.56
2023-07-04T03:48:12.740Z,95026.81
2023-07-04T03:50:39.264Z,95025.00
2023-07-04T03:53:05.729Z,95030.25
2023-07-04T03:55:32.151Z,95033.38
2023-07-04T03:57:58.590Z,95030.41
2023-07-04T04:00:25.018Z,95025.75
2023-07-04T04:02:51.643Z,95025.91
2023-07-04T04:05:18.177Z,95030.09
2023-07-04T04:07:44.626Z,95024.41
2023-07-04T04:10:11.045Z,95024.72
2023-07-04T04:12:37.451Z,95022.03
2023-07-04T04:15:03.957Z,95020.97
2023-07-04T04:17:30.470Z,95017.81
2023-07-04T04:19:56.923Z,95012.88
2023-07-04T04:22:23.436Z,95009.75
2023-07-04T04:24:49.870Z,95013.03
2023-07-04T04:27:16.310Z,95010.66
2023-07-04T04:29:42.736Z,95004.81
2023-07-04T04:32:09.179Z,95007.81
2023-07-04T04:34:35.601Z,95006.63
2023-07-04T04:37:02.045Z,95007.66
2023-07-04T04:39:28.475Z,95003.31
2023-07-04T04:41:54.890Z,95006.59
2023-07-04T04:44:21.388Z,95004.34
2023-07-04T04:46:47.856Z,95003.16
2023-07-04T04:49:14.317Z,95005.69
2023-07-04T04:51:40.734Z,95011.97
2023-07-04T04:54:09.353Z,95010.63
2023-07-04T04:56:35.774Z,95009.09
2023-07-04T04:59:02.248Z,95008.09
2023-07-04T05:01:28.759Z,95015.16
2023-07-04T05:03:55.326Z,95014.13
2023-07-04T05:06:21.850Z,95018.75
2023-07-04T05:08:48.303Z,95007.97
2023-07-04T05:11:14.819Z,95016.00
2023-07-04T05:13:41.274Z,95009.75
2023-07-04T05:16:07.806Z,95010.97
2023-07-04T05:18:34.251Z,95019.03
2023-07-04T05:21:02.044Z,95008.28
2023-07-04T05:23:28.441Z,95008.25
2023-07-04T05:25:54.860Z,95003.00
2023-07-04T05:28:21.270Z,95003.44
2023-07-04T05:30:47.672Z,95012.69
2023-07-04T05:33:14.175Z,95005.84
2023-07-04T05:35:40.617Z,95001.38
2023-07-04T05:38:07.070Z,95006.78
2023-07-04T05:40:33.514Z,95001.72
2023-07-04T05:43:00.956Z,94999.03
2023-07-04T05:45:27.359Z,95006.81
2023-07-04T05:47:53.827Z,95002.03
2023-07-04T05:50:20.270Z,95008.88
2023-07-04T05:52:46.697Z,95005.28
2023-07-04T05:55:13.108Z,95011.56
2023-07-04T05:57:39.570Z,95013.50
2023-07-04T06:00:06.011Z,95014.56
2023-07-04T06:02:32.462Z,95017.41
2023-07-04T06:04:59.017Z,95017.56
2023-07-04T06:07:25.544Z,95017.81
2023-07-04T06:09:52.016Z,95016.03
2023-07-04T06:12:18.468Z,95008.34
2023-07-04T06:14:44.936Z,95010.00
2023-07-04T06:17:11.362Z,95014.81
2023-07-04T06:19:37.838Z,95007.94
2023-07-04T06:22:04.280Z,95014.59
2023-07-04T06:24:30.698Z,95011.75
2023-07-04T06:26:57.294Z,95007.09
2023-07-04T06:29:23.771Z,95006.78
2023-07-04T06:31:50.263Z,95006.28
2023-07-04T06:34:16.738Z,95008.25
2023-07-04T06:36:43.148Z,95015.75
2023-07-04T06:39:09.584Z,95004.63
2023-07-04T06:41:36.030Z,95007.63
2023-07-04T06:44:02.442Z,95007.09
2023-07-04T06:46:28.914Z,95011.50
2023-07-04T06:48:55.388Z,95007.66
2023-07-04T06:51:21.870Z,95015.44
2023-07-04T06:53:48.866Z,95017.53
2023-07-04T06:56:15.589Z,95025.31
2023-07-04T06:58:42.127Z,95022.63
2023-07-04T07:01:08.574Z,95021.75
2023-07-04T07:03:35.156Z,95019.78
2023-07-04T07:06:01.805Z,95018.88
2023-07-04T07:08:28.266Z,95028.59
2023-07-04T07:10:54.891Z,95022.16
2023-07-04T07:13:21.636Z,95031.81
2023-07-04T07:15:48.102Z,95029.28
2023-07-04T07:18:14.549Z,95024.66
2023-07-04T07:20:41.004Z,95030.03
2023-07-04T07:23:07.416Z,95033.28
2023-07-04T07:25:33.897Z,95037.25
2023-07-04T07:28:00.323Z,95030.41
2023-07-04T07:30:26.839Z,95035.91
2023-07-04T07:32:53.275Z,95027.31
2023-07-04T07:35:19.797Z,95029.72
2023-07-04T07:37:46.270Z,95030.56
2023-07-04T07:40:12.715Z,95029.00
2023-07-04T07:42:39.132Z,95022.09
2023-07-04T07:45:05.588Z,95022.84
2023-07-04T07:47:32.055Z,95024.09
2023-07-04T07:49:58.567Z,95021.53
2023-07-04T07:52:25.004Z,95017.78
2023-07-04T07:54:51.493Z,95021.97
2023-07-04T07:57:17.918Z,95024.81
2023-07-04T07:59:44.351Z,95026.38
2023-07-04T08:02:10.766Z,95021.13
2023-07-04T08:04:37.249Z,95016.50
2023-07-04T08:07:03.758Z,95008.91
2023-07-04T08:09:30.215Z,95012.28
2023-07-04T08:11:56.660Z,95022.78
2023-07-04T08:14:23.084Z,95025.91
2023-07-04T08:16:49.639Z,95010.63
2023-07-04T08:19:16.138Z,95017.81
2023-07-04T08:21:42.552Z,95024.56
2023-07-04T08:24:08.975Z,95024.25
2023-07-04T08:26:35.402Z,95014.28
2023-07-04T08:29:01.843Z,95018.28
2023-07-04T08:31:28.304Z,95013.31
2023-07-04T08:33:54.849Z,95016.72
2023-07-04T08:36:21.274Z,95014.66
2023-07-04T08:38:47.701Z,95019.56
2023-07-04T08:41:14.223Z,95010.16
2023-07-04T08:43:40.660Z,95014.34
2023-07-04T08:46:07.140Z,95011.84
2023-07-04T08:48:33.577Z,95012.94
2023-07-04T08:51:00.044Z,95021.59
2023-07-04T08:53:26.463Z,95014.25
2023-07-04T08:55:52.935Z,95011.38
2023-07-04T08:58:19.351Z,95011.72
2023-07-04T09:00:45.794Z,95016.66
2023-07-04T09:03:12.356Z,95005.50
2023-07-04T09:05:38.837Z,95011.19
2023-07-04T09:08:05.293Z,95006.34
2023-07-04T09:10:31.733Z,95016.94
2023-07-04T09:12:58.179Z,95000.28
2023-07-04T09:15:24.571Z,95007.53
2023-07-04T09:17:51.014Z,95009.28
2023-07-04T09:20:17.469Z,95005.09
2023-07-04T09:22:43.902Z,95000.88
2023-07-04T09:25:10.343Z,95003.75
2023-07-04T09:27:37.896Z,94996.78
2023-07-04T09:30:04.302Z,95000.41
2023-07-04T09:32:30.720Z,95004.03
2023-07-04T09:34:57.223Z,95012.19
2023-07-04T09:37:23.632Z,95004.81
2023-07-04T09:42:26.894Z,95000.78
2023-07-04T09:45:05.722Z,95002.81
2023-07-04T09:47:32.192Z,95003.63
2023-07-04T09:49:58.626Z,94999.69
2023-07-04T09:52:25.065Z,94996.47
2023-07-04T09:54:51.498Z,94993.66
2023-07-04T09:57:17.908Z,94993.59
2023-07-04T09:59:44.378Z,94988.53
2023-07-04T10:02:10.818Z,95000.59
2023-07-04T10:04:37.272Z,94990.81
2023-07-04T10:07:03.716Z,94984.69
2023-07-04T10:09:30.269Z,94988.94
2023-07-04T10:11:56.689Z,94983.91
2023-07-04T10:14:23.132Z,94993.31
2023-07-04T10:16:49.583Z,94985.59
2023-07-04T10:19:16.032Z,94987.88
2023-07-04T10:21:42.460Z,94989.72
2023-07-04T10:24:08.905Z,94989.72
2023-07-04T10:26:35.339Z,94986.56
2023-07-04T10:29:01.797Z,94984.53
2023-07-04T10:31:28.327Z,94985.50
2023-07-04T10:33:54.761Z,94983.91
2023-07-04T10:36:22.057Z,94992.91
2023-07-04T10:38:49.253Z,94985.63
2023-07-04T10:41:15.732Z,94992.09
2023-07-04T10:43:42.157Z,94985.38
2023-07-04T10:46:08.594Z,94982.28
2023-07-04T10:48:35.080Z,94979.81
2023-07-04T10:51:01.499Z,94974.28
2023-07-04T10:53:27.916Z,94977.25
2023-07-04T10:55:54.332Z,94971.88
2023-07-04T10:58:20.784Z,94971.88
2023-07-04T11:00:47.205Z,94969.09
2023-07-04T11:03:13.719Z,94966.81
2023-07-04T11:05:40.181Z,94957.56
2023-07-04T11:08:06.621Z,94959.78
2023-07-04T11:10:33.055Z,94958.34
2023-07-04T11:12:59.516Z,94958.31
2023-07-04T11:15:25.923Z,94951.84
2023-07-04T11:17:52.438Z,94958.13
2023-07-04T11:20:19.055Z,94966.84
2023-07-04T11:22:48.277Z,94956.44
2023-07-04T11:25:21.211Z,94950.16
2023-07-04T11:27:47.620Z,94948.38
2023-07-04T11:30:14.071Z,94942.97
2023-07-04T11:32:40.588Z,94939.59
2023-07-04T11:35:07.206Z,94950.22
2023-07-04T11:37:33.666Z,94942.66
2023-07-04T11:40:00.141Z,94939.53
2023-07-04T11:42:26.533Z,94935.88
2023-07-04T11:44:53.007Z,94922.97
2023-07-04T11:47:19.405Z,94926.91
2023-07-04T11:49:45.852Z,94923.53
2023-07-04T11:52:12.271Z,94911.66
2023-07-04T11:54:38.714Z,94917.78
2023-07-04T11:57:07.621Z,94920.03
2023-07-04T11:59:34.236Z,94914.31
2023-07-04T12:02:00.653Z,94920.22
2023-07-04T12:04:27.055Z,94915.81
2023-07-04T12:06:53.556Z,94907.91
2023-07-04T12:09:19.983Z,94905.81
2023-07-04T12:11:46.429Z,94898.72
2023-07-04T12:14:12.849Z,94893.00
2023-07-04T12:16:39.459Z,94898.88
2023-07-04T12:19:06.013Z,94898.28
2023-07-04T12:21:32.493Z,94891.00
2023-07-04T12:23:59.019Z,94900.88
2023-07-04T12:26:25.467Z,94896.97
2023-07-04T12:29:01.903Z,94887.88
2023-07-04T12:31:42.613Z,94899.13
2023-07-04T12:34:09.916Z,94890.50
2023-07-04T12:36:36.674Z,94891.16
2023-07-04T12:39:03.105Z,94892.50
2023-07-04T12:41:29.559Z,94891.63
2023-07-04T12:51:23.916Z,94902.00
2023-07-04T12:53:50.433Z,94884.91
2023-07-04T12:56:16.838Z,94883.84
2023-07-04T12:58:43.273Z,94872.59
2023-07-04T13:01:09.701Z,94871.94
2023-07-04T13:03:36.273Z,94871.72
2023-07-04T13:06:02.712Z,94869.72
2023-07-04T13:08:29.126Z,94867.09
2023-07-04T13:10:55.547Z,94857.78
2023-07-04T13:13:22.645Z,94863.97
2023-07-04T13:15:49.240Z,94869.88
2023-07-04T13:18:15.654Z,94869.50
2023-07-04T13:20:42.070Z,94858.31
2023-07-04T13:30:21.556Z,94852.06
2023-07-04T13:33:22.824Z,94852.28
2023-07-04T13:35:49.253Z,94842.25
2023-07-04T13:40:45.004Z,94843.41
2023-07-04T13:45:40.801Z,94836.50
2023-07-04T13:48:07.230Z,94824.63
2023-07-04T13:50:33.695Z,94829.56
2023-07-04T13:53:13.730Z,94827.59
2023-07-04T13:55:41.874Z,94821.59
2023-07-04T13:58:08.295Z,94830.56
2023-07-04T14:01:13.930Z,94815.47
2023-07-04T14:05:56.885Z,94817.63
2023-07-04T14:08:24.692Z,94811.97
2023-07-04T14:10:51.113Z,94820.00
2023-07-04T14:13:17.571Z,94812.31
2023-07-04T14:20:42.696Z,94813.28
2023-07-04T14:23:09.214Z,94818.63
2023-07-04T14:25:35.656Z,94827.00
2023-07-04T14:28:02.088Z,94808.59
2023-07-04T14:30:28.528Z,94820.63
2023-07-04T14:32:54.998Z,94814.53
2023-07-04T14:35:21.478Z,94812.25
2023-07-04T14:37:47.877Z,94805.59
2023-07-04T14:42:48.658Z,94792.28
2023-07-04T14:45:15.497Z,94798.19
2023-07-04T14:47:42.000Z,94778.72
2023-07-04T14:50:08.455Z,94787.09
2023-07-04T14:52:34.863Z,94792.25
2023-07-04T14:55:01.292Z,94793.25
2023-07-04T14:57:27.723Z,94782.66
2023-07-04T14:59:54.156Z,94778.44
2023-07-04T15:02:20.636Z,94777.66
2023-07-04T15:04:47.110Z,94763.88
2023-07-04T15:07:13.504Z,94768.16
2023-07-04T15:09:39.888Z,94775.19
2023-07-04T15:12:06.297Z,94766.63
2023-07-04T15:14:32.726Z,94760.47
2023-07-04T15:16:59.210Z,94765.81
2023-07-04T15:19:25.658Z,94772.69
2023-07-04T15:21:52.088Z,94767.25
2023-07-04T15:24:18.537Z,94766.13
2023-07-04T15:26:44.965Z,94761.19
2023-07-04T15:29:11.379Z,94774.59
2023-07-04T15:31:37.803Z,94762.66
2023-07-04T15:34:04.243Z,94768.34
2023-07-04T15:36:30.740Z,94760.19
2023-07-04T15:38:57.181Z,94752.59
2023-07-04T15:41:23.619Z,94745.66
2023-07-04T15:43:50.011Z,94760.19
2023-07-04T15:46:16.521Z,94768.19
2023-07-04T15:48:42.942Z,94752.44
2023-07-04T15:51:09.376Z,94762.91
2023-07-04T15:53:35.862Z,94749.91
2023-07-04T15:56:02.299Z,94759.34
2023-07-04T15:58:28.741Z,94760.19
2023-07-04T16:00:55.162Z,94750.97
2023-07-04T16:03:21.759Z,94755.53
2023-07-04T16:05:48.310Z,94744.69
2023-07-04T16:08:14.743Z,94749.88
2023-07-04T16:10:41.171Z,94749.63
2023-07-04T16:13:07.629Z,94748.03
2023-07-04T16:15:34.074Z,94731.97
2023-07-04T16:18:00.524Z,94755.75
2023-07-04T16:20:27.062Z,94747.28
2023-07-04T16:22:53.504Z,94747.53
2023-07-04T16:25:19.957Z,94748.59
2023-07-04T16:27:46.380Z,94754.00
2023-07-04T16:30:12.794Z,94743.47
2023-07-04T16:32:39.247Z,94755.97
2023-07-04T16:35:05.682Z,94733.72
2023-07-04T16:37:32.168Z,94748.97
2023-07-04T16:39:58.596Z,94742.44
2023-07-04T16:42:25.057Z,94745.81
2023-07-04T16:44:51.497Z,94752.84
2023-07-04T16:47:17.984Z,94741.50
2023-07-04T16:49:44.482Z,94745.06
2023-07-04T16:52:10.899Z,94744.44
2023-07-04T16:54:37.346Z,94741.19
2023-07-04T16:57:03.781Z,94752.41
2023-07-04T16:59:30.251Z,94740.97
2023-07-04T17:01:58.659Z,94749.38
2023-07-04T17:04:26.532Z,94744.81
2023-07-04T17:06:52.953Z,94745.13
2023-07-04T17:09:19.448Z,94738.25
2023-07-04T17:11:45.930Z,94736.19
2023-07-04T17:14:12.373Z,94734.78
2023-07-04T17:16:38.871Z,94754.97
2023-07-04T17:19:05.524Z,94739.03
2023-07-04T17:21:32.016Z,94760.03
2023-07-04T17:23:58.464Z,94738.44
2023-07-04T17:26:24.910Z,94752.97
2023-07-04T17:28:51.345Z,94757.94
2023-07-04T17:31:17.876Z,94749.03
2023-07-04T17:33:44.344Z,94758.63
2023-07-04T17:36:10.799Z,94775.16
2023-07-04T17:38:37.889Z,94763.41
2023-07-04T17:41:04.825Z,94772.97
2023-07-04T17:43:31.329Z,94768.13
2023-07-04T17:45:57.778Z,94766.94
2023-07-04T17:48:24.199Z,94763.94
2023-07-04T17:50:50.704Z,94764.53
2023-07-04T17:53:17.251Z,94782.03
2023-07-04T17:55:43.678Z,94767.16
2023-07-04T17:58:10.131Z,94771.31
2023-07-04T18:00:36.591Z,94765.97
2023-07-04T18:03:03.156Z,94764.63
2023-07-04T18:05:29.623Z,94757.38
2023-07-04T18:07:56.043Z,94766.75
2023-07-04T18:10:22.469Z,94756.72
2023-07-04T18:12:48.879Z,94764.88
2023-07-04T18:15:15.293Z,94765.34
2023-07-04T18:17:41.797Z,94760.19
2023-07-04T18:20:08.296Z,94764.03
2023-07-04T18:22:34.805Z,94766.16
2023-07-04T18:25:01.234Z,94758.38
2023-07-04T18:27:27.635Z,94760.91
2023-07-04T18:29:54.107Z,94759.00
2023-07-04T18:32:20.513Z,94768.53
2023-07-04T18:34:47.137Z,94766.44
2023-07-04T18:37:13.576Z,94767.59
2023-07-04T18:39:39.974Z,94758.09
2023-07-04T18:42:06.449Z,94758.34
2023-07-04T18:44:32.925Z,94751.75
2023-07-04T18:46:59.361Z,94764.34
2023-07-04T18:49:25.865Z,94758.38
2023-07-04T18:51:52.322Z,94770.16
2023-07-04T18:54:18.783Z,94760.97
2023-07-04T18:56:45.260Z,94766.81
2023-07-04T18:59:11.721Z,94772.22
2023-07-04T19:01:38.255Z,94761.69
2023-07-04T19:04:04.795Z,94765.63
2023-07-04T19:06:31.240Z,94764.91
2023-07-04T19:08:57.647Z,94764.72
2023-07-04T19:11:24.082Z,94772.59
2023-07-04T19:13:50.583Z,94771.31
2023-07-04T19:16:17.105Z,94773.88
2023-07-04T19:18:43.738Z,94773.28
2023-07-04T19:21:10.197Z,94771.00
2023-07-04T19:23:36.624Z,94770.38
2023-07-04T19:26:03.089Z,94771.06
2023-07-04T19:28:29.535Z,94768.88
2023-07-04T19:30:56.066Z,94770.16
2023-07-04T19:33:22.503Z,94772.41
2023-07-04T19:35:48.906Z,94778.84
2023-07-04T19:38:15.326Z,94776.91
2023-07-04T19:40:41.738Z,94781.59
2023-07-04T19:43:08.187Z,94785.53
2023-07-04T19:45:34.627Z,94775.75
2023-07-04T19:48:01.106Z,94778.63
2023-07-04T19:50:27.557Z,94796.09
2023-07-04T19:52:53.965Z,94782.38
2023-07-04T19:55:20.384Z,94785.09
2023-07-04T19:57:46.808Z,94785.78
2023-07-04T20:00:13.217Z,94792.84
2023-07-04T20:02:39.744Z,94789.66
2023-07-04T20:05:06.267Z,94800.47
2023-07-04T20:07:32.745Z,94795.81
2023-07-04T20:09:59.185Z,94793.19
2023-07-04T20:12:25.626Z,94795.84
2023-07-04T20:14:52.046Z,94791.88
2023-07-04T20:17:18.462Z,94792.25
2023-07-04T20:19:44.911Z,94793.47
2023-07-04T20:22:11.326Z,94799.56
2023-07-04T20:24:37.761Z,94809.06
2023-07-04T20:27:04.218Z,94802.88
2023-07-04T20:29:30.666Z,94803.56
2023-07-04T20:31:57.164Z,94801.31
2023-07-04T20:34:23.821Z,94803.50
2023-07-04T20:36:50.238Z,94805.06
2023-07-04T20:39:16.685Z,94798.41
2023-07-04T20:41:43.090Z,94799.91
2023-07-04T20:44:09.517Z,94799.25
2023-07-04T20:46:36.015Z,94789.13
2023-07-04T20:49:02.462Z,94789.66
2023-07-04T20:51:28.876Z,94798.28
2023-07-04T20:53:55.303Z,94804.16
2023-07-04T20:56:21.757Z,94801.94
2023-07-04T20:58:48.195Z,94800.38
2023-07-04T21:01:14.665Z,94809.63
2023-07-04T21:03:41.130Z,94810.19
2023-07-04T21:06:07.587Z,94812.59
2023-07-04T21:08:34.028Z,94808.28
2023-07-04T21:11:00.469Z,94804.50
2023-07-04T21:13:26.931Z,94804.91
2023-07-04T21:15:53.572Z,94800.88
2023-07-04T21:18:20.165Z,94793.50
2023-07-04T21:20:46.573Z,94791.53
2023-07-04T21:23:12.993Z,94788.84
2023-07-04T21:25:39.441Z,94790.06
2023-07-04T21:28:05.886Z,94791.00
2023-07-04T21:30:32.300Z,94791.75
2023-07-04T21:32:58.740Z,94787.50
2023-07-04T21:35:25.173Z,94791.13
2023-07-04T21:37:51.619Z,94786.22
2023-07-04T21:40:18.039Z,94781.88
2023-07-04T21:42:44.460Z,94787.28
2023-07-04T21:45:10.956Z,94778.63
2023-07-04T21:47:37.448Z,94782.53
2023-07-04T21:50:03.971Z,94788.22
2023-07-04T21:52:30.384Z,94795.41
2023-07-04T21:54:56.816Z,94785.28
2023-07-04T21:57:23.271Z,94787.97
2023-07-04T21:59:49.698Z,94790.41
2023-07-04T22:02:16.127Z,94782.13
2023-07-04T22:04:42.567Z,94791.69
2023-07-04T22:07:08.995Z,94786.75
2023-07-04T22:09:35.433Z,94789.13
2023-07-04T22:12:01.895Z,94781.22
2023-07-04T22:14:37.650Z,94783.22
2023-07-04T22:17:05.182Z,94792.34
2023-07-04T22:19:31.841Z,94795.34
2023-07-04T22:21:58.331Z,94804.00
2023-07-04T22:24:24.786Z,94800.63
2023-07-04T22:26:51.271Z,94798.47
2023-07-04T22:29:17.736Z,94795.22
2023-07-04T22:31:44.185Z,94796.28
2023-07-04T22:34:10.621Z,94792.72
2023-07-04T22:36:37.051Z,94794.31
2023-07-04T22:39:03.461Z,94792.56
2023-07-04T22:41:29.894Z,94792.53
2023-07-04T22:43:56.292Z,94783.59
2023-07-04T22:46:22.704Z,94777.31
2023-07-04T22:48:49.116Z,94777.47
2023-07-04T22:51:15.538Z,94796.63
2023-07-04T22:53:41.951Z,94813.84
2023-07-04T22:56:08.402Z,94808.59
2023-07-04T22:58:34.814Z,94804.00
2023-07-04T23:01:02.006Z,94804.38
2023-07-04T23:03:28.690Z,94809.19
2023-07-04T23:05:55.462Z,94798.13
2023-07-04T23:08:22.099Z,94795.94
2023-07-04T23:10:48.516Z,94778.91
2023-07-04T23:13:14.970Z,94779.44
2023-07-04T23:15:41.410Z,94784.06
2023-07-04T23:18:08.006Z,94797.00
2023-07-04T23:20:34.534Z,94797.00
2023-07-04T23:23:00.966Z,94794.88
2023-07-04T23:25:27.392Z,94794.97
2023-07-04T23:27:53.845Z,94791.97
2023-07-04T23:30:20.285Z,94799.88
2023-07-04T23:32:46.747Z,94790.47
2023-07-04T23:35:13.213Z,94792.91
2023-07-04T23:37:39.658Z,94800.34
2023-07-04T23:40:06.098Z,94802.47
2023-07-04T23:42:32.585Z,94798.47
2023-07-04T23:44:59.031Z,94800.91
2023-07-04T23:47:25.470Z,94805.09
2023-07-04T23:49:52.094Z,94805.00
2023-07-04T23:52:18.508Z,94809.84
2023-07-04T23:54:44.951Z,94814.75
2023-07-04T23:57:11.399Z,94816.22
2023-07-04T23:59:37.824Z,94817.19
